sensor_id;sensor_type;location;lat;lon;timestamp;temperature;humidity
1361;DHT22;674;45.552;-122.600;2023-04-01T00:01:17;8.70;96.60
1361;DHT22;674;45.552;-122.600;2023-04-01T00:03:45;8.80;95.90
1361;DHT22;674;45.552;-122.600;2023-04-01T00:06:16;8.90;94.10
1361;DHT22;674;45.552;-122.600;2023-04-01T00:08:45;8.60;97.40
1361;DHT22;674;45.552;-122.600;2023-04-01T00:11:14;8.60;94.40
1361;DHT22;674;45.552;-122.600;2023-04-01T00:13:43;8.70;94.40
1361;DHT22;674;45.552;-122.600;2023-04-01T00:16:12;8.60;99.90
1361;DHT22;674;45.552;-122.600;2023-04-01T00:18:49;8.60;96.80
1361;DHT22;674;45.552;-122.600;2023-04-01T00:21:19;8.60;99.90
1361;DHT22;674;45.552;-122.600;2023-04-01T00:23:49;8.50;97.20
1361;DHT22;674;45.552;-122.600;2023-04-01T00:26:19;8.60;99.90
1361;DHT22;674;45.552;-122.600;2023-04-01T00:28:49;8.60;99.90
1361;DHT22;674;45.552;-122.600;2023-04-01T00:31:18;8.90;99.90
1361;DHT22;674;45.552;-122.600;2023-04-01T00:33:47;8.40;99.90
1361;DHT22;674;45.552;-122.600;2023-04-01T00:36:18;8.50;99.90
1361;DHT22;674;45.552;-122.600;2023-04-01T00:38:47;8.50;99.90
1361;DHT22;674;45.552;-122.600;2023-04-01T00:41:16;8.60;99.90
1361;DHT22;674;45.552;-122.600;2023-04-01T00:43:48;8.40;99.90
1361;DHT22;674;45.552;-122.600;2023-04-01T00:46:17;8.30;99.90
1361;DHT22;674;45.552;-122.600;2023-04-01T00:48:49;8.40;99.90
1361;DHT22;674;45.552;-122.600;2023-04-01T00:51:23;8.50;99.90
1361;DHT22;674;45.552;-122.600;2023-04-01T00:53:56;8.20;99.90
1361;DHT22;674;45.552;-122.600;2023-04-01T00:56:33;8.10;99.90
1361;DHT22;674;45.552;-122.600;2023-04-01T00:59:16;8.10;99.20
1361;DHT22;674;45.552;-122.600;2023-04-01T01:01:46;8.10;99.90
1361;DHT22;674;45.552;-122.600;2023-04-01T01:04:29;8.20;99.90
1361;DHT22;674;45.552;-122.600;2023-04-01T01:09:38;8.20;99.40
1361;DHT22;674;45.552;-122.600;2023-04-01T01:18:01;8.10;99.90
1361;DHT22;674;45.552;-122.600;2023-04-01T01:37:40;8.20;99.90
1361;DHT22;674;45.552;-122.600;2023-04-01T01:40:12;8.10;99.90
1361;DHT22;674;45.552;-122.600;2023-04-01T01:42:45;8.00;99.90
1361;DHT22;674;45.552;-122.600;2023-04-01T01:45:18;7.80;99.90
1361;DHT22;674;45.552;-122.600;2023-04-01T01:47:48;7.80;99.90
1361;DHT22;674;45.552;-122.600;2023-04-01T01:50:18;7.90;99.90
1361;DHT22;674;45.552;-122.600;2023-04-01T01:52:47;8.10;99.90
1361;DHT22;674;45.552;-122.600;2023-04-01T01:55:34;7.90;99.90
1361;DHT22;674;45.552;-122.600;2023-04-01T02:00:36;7.80;99.90
1361;DHT22;674;45.552;-122.600;2023-04-01T02:03:05;7.80;99.90
1361;DHT22;674;45.552;-122.600;2023-04-01T02:05:34;7.60;99.90
1361;DHT22;674;45.552;-122.600;2023-04-01T02:08:11;7.70;99.90
1361;DHT22;674;45.552;-122.600;2023-04-01T02:10:47;7.70;99.90
1361;DHT22;674;45.552;-122.600;2023-04-01T02:13:24;7.60;99.90
1361;DHT22;674;45.552;-122.600;2023-04-01T02:16:00;7.60;99.90
1361;DHT22;674;45.552;-122.600;2023-04-01T02:18:30;7.60;99.90
1361;DHT22;674;45.552;-122.600;2023-04-01T02:21:02;7.70;99.90
1361;DHT22;674;45.552;-122.600;2023-04-01T02:23:35;7.80;99.90
1361;DHT22;674;45.552;-122.600;2023-04-01T02:26:07;7.60;99.90
1361;DHT22;674;45.552;-122.600;2023-04-01T02:28:38;7.50;99.90
1361;DHT22;674;45.552;-122.600;2023-04-01T02:31:09;7.50;99.90
1361;DHT22;674;45.552;-122.600;2023-04-01T02:33:39;7.50;99.90
1361;DHT22;674;45.552;-122.600;2023-04-01T02:36:14;7.50;99.90
1361;DHT22;674;45.552;-122.600;2023-04-01T02:38:44;7.60;99.90
1361;DHT22;674;45.552;-122.600;2023-04-01T02:41:13;7.60;99.90
1361;DHT22;674;45.552;-122.600;2023-04-01T02:43:42;7.50;99.90
1361;DHT22;674;45.552;-122.600;2023-04-01T02:46:13;7.50;99.90
1361;DHT22;674;45.552;-122.600;2023-04-01T02:48:45;7.50;99.90
1361;DHT22;674;45.552;-122.600;2023-04-01T02:51:14;7.50;99.90
1361;DHT22;674;45.552;-122.600;2023-04-01T02:53:44;7.40;99.90
1361;DHT22;674;45.552;-122.600;2023-04-01T02:56:12;7.30;99.90
1361;DHT22;674;45.552;-122.600;2023-04-01T02:58:41;7.30;99.90
1361;DHT22;674;45.552;-122.600;2023-04-01T03:01:09;7.30;99.90
1361;DHT22;674;45.552;-122.600;2023-04-01T03:03:38;7.30;99.90
1361;DHT22;674;45.552;-122.600;2023-04-01T03:06:12;7.30;99.90
1361;DHT22;674;45.552;-122.600;2023-04-01T03:08:40;7.30;99.90
1361;DHT22;674;45.552;-122.600;2023-04-01T03:11:10;7.40;99.90
1361;DHT22;674;45.552;-122.600;2023-04-01T03:13:38;7.20;99.90
1361;DHT22;674;45.552;-122.600;2023-04-01T03:16:07;7.30;99.90
1361;DHT22;674;45.552;-122.600;2023-04-01T03:18:35;7.30;99.90
1361;DHT22;674;45.552;-122.600;2023-04-01T03:21:17;7.30;99.90
1361;DHT22;674;45.552;-122.600;2023-04-01T03:23:47;7.20;99.90
1361;DHT22;674;45.552;-122.600;2023-04-01T03:26:15;7.10;99.90
1361;DHT22;674;45.552;-122.600;2023-04-01T03:28:44;7.20;99.90
1361;DHT22;674;45.552;-122.600;2023-04-01T03:31:13;7.20;99.90
1361;DHT22;674;45.552;-122.600;2023-04-01T03:33:43;7.20;99.90
1361;DHT22;674;45.552;-122.600;2023-04-01T03:36:12;7.20;99.90
1361;DHT22;674;45.552;-122.600;2023-04-01T03:38:41;7.20;99.90
1361;DHT22;674;45.552;-122.600;2023-04-01T03:41:15;7.20;99.90
1361;DHT22;674;45.552;-122.600;2023-04-01T03:43:44;7.20;99.90
1361;DHT22;674;45.552;-122.600;2023-04-01T03:46:18;7.30;99.90
1361;DHT22;674;45.552;-122.600;2023-04-01T03:48:47;7.30;99.90
1361;DHT22;674;45.552;-122.600;2023-04-01T03:51:15;7.20;99.90
1361;DHT22;674;45.552;-122.600;2023-04-01T03:53:44;7.20;99.90
1361;DHT22;674;45.552;-122.600;2023-04-01T03:56:12;7.20;99.90
1361;DHT22;674;45.552;-122.600;2023-04-01T03:58:41;7.20;99.90
1361;DHT22;674;45.552;-122.600;2023-04-01T04:01:17;7.10;99.90
1361;DHT22;674;45.552;-122.600;2023-04-01T04:03:46;7.20;99.90
1361;DHT22;674;45.552;-122.600;2023-04-01T04:06:18;7.40;99.90
1361;DHT22;674;45.552;-122.600;2023-04-01T04:08:46;7.10;99.90
1361;DHT22;674;45.552;-122.600;2023-04-01T04:11:16;7.30;99.90
1361;DHT22;674;45.552;-122.600;2023-04-01T04:13:44;7.20;99.90
1361;DHT22;674;45.552;-122.600;2023-04-01T04:16:13;7.10;99.90
1361;DHT22;674;45.552;-122.600;2023-04-01T04:18:42;7.10;99.90
1361;DHT22;674;45.552;-122.600;2023-04-01T04:21:14;7.10;99.90
1361;DHT22;674;45.552;-122.600;2023-04-01T04:23:43;7.10;99.90
1361;DHT22;674;45.552;-122.600;2023-04-01T04:26:14;7.10;99.90
1361;DHT22;674;45.552;-122.600;2023-04-01T04:28:43;7.10;99.90
1361;DHT22;674;45.552;-122.600;2023-04-01T04:31:12;7.10;99.90
1361;DHT22;674;45.552;-122.600;2023-04-01T04:33:40;7.10;99.90
1361;DHT22;674;45.552;-122.600;2023-04-01T04:36:09;7.10;99.90
1361;DHT22;674;45.552;-122.600;2023-04-01T04:38:37;7.30;99.90
1361;DHT22;674;45.552;-122.600;2023-04-01T04:41:10;7.00;99.90
1361;DHT22;674;45.552;-122.600;2023-04-01T04:43:40;7.00;99.90
1361;DHT22;674;45.552;-122.600;2023-04-01T04:46:09;7.40;99.90
1361;DHT22;674;45.552;-122.600;2023-04-01T04:48:38;7.20;99.90
1361;DHT22;674;45.552;-122.600;2023-04-01T04:51:06;7.20;99.90
1361;DHT22;674;45.552;-122.600;2023-04-01T04:53:35;7.20;99.90
1361;DHT22;674;45.552;-122.600;2023-04-01T04:56:03;6.90;99.90
1361;DHT22;674;45.552;-122.600;2023-04-01T04:58:32;7.10;99.90
1361;DHT22;674;45.552;-122.600;2023-04-01T05:01:13;7.20;99.90
1361;DHT22;674;45.552;-122.600;2023-04-01T05:03:42;7.10;99.90
1361;DHT22;674;45.552;-122.600;2023-04-01T05:06:13;7.20;99.90
1361;DHT22;674;45.552;-122.600;2023-04-01T05:08:43;7.20;99.90
1361;DHT22;674;45.552;-122.600;2023-04-01T05:11:15;7.20;99.90
1361;DHT22;674;45.552;-122.600;2023-04-01T05:13:44;7.10;99.90
1361;DHT22;674;45.552;-122.600;2023-04-01T05:16:16;7.00;99.90
1361;DHT22;674;45.552;-122.600;2023-04-01T05:18:45;7.20;99.90
1361;DHT22;674;45.552;-122.600;2023-04-01T05:21:15;7.20;99.90
1361;DHT22;674;45.552;-122.600;2023-04-01T05:23:43;7.20;99.90
1361;DHT22;674;45.552;-122.600;2023-04-01T05:26:14;7.30;99.90
1361;DHT22;674;45.552;-122.600;2023-04-01T05:28:43;7.30;99.90
1361;DHT22;674;45.552;-122.600;2023-04-01T05:31:12;7.40;99.90
1361;DHT22;674;45.552;-122.600;2023-04-01T05:33:40;7.10;99.90
1361;DHT22;674;45.552;-122.600;2023-04-01T05:36:11;7.20;99.90
1361;DHT22;674;45.552;-122.600;2023-04-01T05:38:41;7.10;99.90
1361;DHT22;674;45.552;-122.600;2023-04-01T05:41:11;7.20;99.90
1361;DHT22;674;45.552;-122.600;2023-04-01T05:43:40;7.10;99.90
1361;DHT22;674;45.552;-122.600;2023-04-01T05:46:09;7.40;99.90
1361;DHT22;674;45.552;-122.600;2023-04-01T05:48:37;7.20;99.90
1361;DHT22;674;45.552;-122.600;2023-04-01T05:51:06;7.20;99.90
1361;DHT22;674;45.552;-122.600;2023-04-01T05:53:34;7.20;99.90
1361;DHT22;674;45.552;-122.600;2023-04-01T05:56:04;7.30;99.90
1361;DHT22;674;45.552;-122.600;2023-04-01T05:58:32;7.20;99.90
1361;DHT22;674;45.552;-122.600;2023-04-01T06:01:09;7.30;99.90
1361;DHT22;674;45.552;-122.600;2023-04-01T06:03:42;7.20;99.90
1361;DHT22;674;45.552;-122.600;2023-04-01T06:06:16;7.30;99.90
1361;DHT22;674;45.552;-122.600;2023-04-01T06:08:49;7.30;99.90
1361;DHT22;674;45.552;-122.600;2023-04-01T06:31:05;7.30;99.90
1361;DHT22;674;45.552;-122.600;2023-04-01T06:34:04;7.20;99.90
1361;DHT22;674;45.552;-122.600;2023-04-01T06:39:48;7.30;99.90
1361;DHT22;674;45.552;-122.600;2023-04-01T06:56:38;7.40;99.90
1361;DHT22;674;45.552;-122.600;2023-04-01T06:59:17;7.40;99.90
1361;DHT22;674;45.552;-122.600;2023-04-01T07:01:49;7.50;99.90
1361;DHT22;674;45.552;-122.600;2023-04-01T07:04:46;7.50;99.90
1361;DHT22;674;45.552;-122.600;2023-04-01T07:10:10;7.50;99.90
1361;DHT22;674;45.552;-122.600;2023-04-01T07:12:45;7.50;99.90
1361;DHT22;674;45.552;-122.600;2023-04-01T07:15:20;7.60;99.90
1361;DHT22;674;45.552;-122.600;2023-04-01T07:17:57;7.60;99.90
1361;DHT22;674;45.552;-122.600;2023-04-01T07:20:32;7.40;99.90
1361;DHT22;674;45.552;-122.600;2023-04-01T07:23:08;7.40;99.90
1361;DHT22;674;45.552;-122.600;2023-04-01T07:25:43;7.70;99.90
1361;DHT22;674;45.552;-122.600;2023-04-01T07:28:15;7.50;99.90
1361;DHT22;674;45.552;-122.600;2023-04-01T07:34:35;7.60;99.90
1361;DHT22;674;45.552;-122.600;2023-04-01T07:39:25;7.60;99.90
1361;DHT22;674;45.552;-122.600;2023-04-01T07:44:46;7.70;99.90
1361;DHT22;674;45.552;-122.600;2023-04-01T07:47:34;7.80;99.90
1361;DHT22;674;45.552;-122.600;2023-04-01T07:50:29;7.70;99.90
1361;DHT22;674;45.552;-122.600;2023-04-01T07:53:12;7.80;99.90
1361;DHT22;674;45.552;-122.600;2023-04-01T08:04:25;7.60;99.90
1361;DHT22;674;45.552;-122.600;2023-04-01T08:12:45;7.60;99.90
1361;DHT22;674;45.552;-122.600;2023-04-01T08:21:00;7.90;99.90
1361;DHT22;674;45.552;-122.600;2023-04-01T08:23:49;7.80;99.90
1361;DHT22;674;45.552;-122.600;2023-04-01T08:26:28;7.70;99.90
1361;DHT22;674;45.552;-122.600;2023-04-01T08:29:10;7.60;99.90
1361;DHT22;674;45.552;-122.600;2023-04-01T08:31:54;7.60;99.90
1361;DHT22;674;45.552;-122.600;2023-04-01T08:34:28;7.70;99.90
1361;DHT22;674;45.552;-122.600;2023-04-01T08:37:09;7.80;99.90
1361;DHT22;674;45.552;-122.600;2023-04-01T08:40:00;7.80;99.90
1361;DHT22;674;45.552;-122.600;2023-04-01T08:59:32;7.60;99.90
1361;DHT22;674;45.552;-122.600;2023-04-01T09:07:40;7.50;99.90
1361;DHT22;674;45.552;-122.600;2023-04-01T09:10:24;7.60;99.90
1361;DHT22;674;45.552;-122.600;2023-04-01T09:27:03;7.10;99.90
1361;DHT22;674;45.552;-122.600;2023-04-01T09:36:07;6.90;99.90
1361;DHT22;674;45.552;-122.600;2023-04-01T09:38:35;6.90;99.90
1361;DHT22;674;45.552;-122.600;2023-04-01T09:44:18;6.70;99.90
1361;DHT22;674;45.552;-122.600;2023-04-01T09:47:41;6.90;99.90
1361;DHT22;674;45.552;-122.600;2023-04-01T09:50:38;6.90;99.90
1361;DHT22;674;45.552;-122.600;2023-04-01T09:56:23;7.00;99.90
1361;DHT22;674;45.552;-122.600;2023-04-01T10:03:02;7.00;99.90
1361;DHT22;674;45.552;-122.600;2023-04-01T10:14:30;6.90;99.90
1361;DHT22;674;45.552;-122.600;2023-04-01T10:26:37;6.80;99.90
1361;DHT22;674;45.552;-122.600;2023-04-01T10:38:19;6.70;99.90
1361;DHT22;674;45.552;-122.600;2023-04-01T10:47:02;7.00;99.90
1361;DHT22;674;45.552;-122.600;2023-04-01T10:55:55;6.90;99.90
1361;DHT22;674;45.552;-122.600;2023-04-01T11:01:56;6.60;99.90
1361;DHT22;674;45.552;-122.600;2023-04-01T11:29:41;6.30;99.90
1361;DHT22;674;45.552;-122.600;2023-04-01T11:44:19;6.30;99.90
1361;DHT22;674;45.552;-122.600;2023-04-01T11:50:02;6.30;99.90
1361;DHT22;674;45.552;-122.600;2023-04-01T12:09:46;6.00;99.90
1361;DHT22;674;45.552;-122.600;2023-04-01T12:18:38;5.90;99.90
1361;DHT22;674;45.552;-122.600;2023-04-01T12:21:13;6.20;99.90
1361;DHT22;674;45.552;-122.600;2023-04-01T12:35:15;6.10;99.90
1361;DHT22;674;45.552;-122.600;2023-04-01T12:40:45;6.20;99.90
1361;DHT22;674;45.552;-122.600;2023-04-01T12:54:48;6.00;99.90
1361;DHT22;674;45.552;-122.600;2023-04-01T13:14:50;5.90;99.90
1361;DHT22;674;45.552;-122.600;2023-04-01T13:17:26;5.60;99.90
1361;DHT22;674;45.552;-122.600;2023-04-01T13:20:21;5.80;99.90
1361;DHT22;674;45.552;-122.600;2023-04-01T13:29:12;6.00;99.90
1361;DHT22;674;45.552;-122.600;2023-04-01T13:40:25;5.60;99.90
1361;DHT22;674;45.552;-122.600;2023-04-01T13:43:02;5.60;99.90
1361;DHT22;674;45.552;-122.600;2023-04-01T13:54:26;5.80;99.90
1361;DHT22;674;45.552;-122.600;2023-04-01T14:14:23;5.60;99.90
1361;DHT22;674;45.552;-122.600;2023-04-01T14:17:27;5.70;99.90
1361;DHT22;674;45.552;-122.600;2023-04-01T14:20:22;5.60;99.90
1361;DHT22;674;45.552;-122.600;2023-04-01T14:25:26;5.40;99.90
1361;DHT22;674;45.552;-122.600;2023-04-01T14:28:30;5.60;99.90
1361;DHT22;674;45.552;-122.600;2023-04-01T14:31:23;5.40;99.90
1361;DHT22;674;45.552;-122.600;2023-04-01T14:42:18;5.50;99.90
1361;DHT22;674;45.552;-122.600;2023-04-01T14:46:06;5.50;99.90
1361;DHT22;674;45.552;-122.600;2023-04-01T14:48:25;5.60;99.90
1361;DHT22;674;45.552;-122.600;2023-04-01T14:51:08;5.70;99.90
1361;DHT22;674;45.552;-122.600;2023-04-01T14:53:44;5.50;99.90
1361;DHT22;674;45.552;-122.600;2023-04-01T14:56:44;5.50;99.90
1361;DHT22;674;45.552;-122.600;2023-04-01T15:02:10;5.60;99.90
1361;DHT22;674;45.552;-122.600;2023-04-01T15:13:12;5.40;99.90
1361;DHT22;674;45.552;-122.600;2023-04-01T15:21:44;6.20;99.90
1361;DHT22;674;45.552;-122.600;2023-04-01T15:24:45;6.80;99.90
1361;DHT22;674;45.552;-122.600;2023-04-01T15:27:39;7.40;99.90
1361;DHT22;674;45.552;-122.600;2023-04-01T15:43:46;7.30;91.90
1361;DHT22;674;45.552;-122.600;2023-04-01T15:46:46;7.60;95.50
1361;DHT22;674;45.552;-122.600;2023-04-01T16:00:30;9.00;26.30
1361;DHT22;674;45.552;-122.600;2023-04-01T16:03:23;8.90;1.00
1361;DHT22;674;45.552;-122.600;2023-04-01T16:09:06;8.50;1.00
1361;DHT22;674;45.552;-122.600;2023-04-01T16:11:45;7.90;1.00
1361;DHT22;674;45.552;-122.600;2023-04-01T16:20:00;7.10;19.30
1361;DHT22;674;45.552;-122.600;2023-04-01T16:22:34;6.70;47.00
1361;DHT22;674;45.552;-122.600;2023-04-01T16:33:21;6.60;94.70
1361;DHT22;674;45.552;-122.600;2023-04-01T16:39:02;6.50;99.40
1361;DHT22;674;45.552;-122.600;2023-04-01T16:41:40;6.50;99.90
1361;DHT22;674;45.552;-122.600;2023-04-01T16:44:23;6.60;99.30
1361;DHT22;674;45.552;-122.600;2023-04-01T16:47:06;6.40;98.70
1361;DHT22;674;45.552;-122.600;2023-04-01T16:49:52;6.60;99.20
1361;DHT22;674;45.552;-122.600;2023-04-01T16:52:48;6.40;97.80
1361;DHT22;674;45.552;-122.600;2023-04-01T16:55:23;6.70;97.80
1361;DHT22;674;45.552;-122.600;2023-04-01T16:58:02;6.60;88.50
1361;DHT22;674;45.552;-122.600;2023-04-01T17:00:49;6.80;88.30
1361;DHT22;674;45.552;-122.600;2023-04-01T17:03:36;7.10;72.40
1361;DHT22;674;45.552;-122.600;2023-04-01T17:06:08;7.10;61.40
1361;DHT22;674;45.552;-122.600;2023-04-01T17:08:58;7.30;66.70
1361;DHT22;674;45.552;-122.600;2023-04-01T17:15:05;8.00;14.00
1361;DHT22;674;45.552;-122.600;2023-04-01T17:17:17;8.40;11.10
1361;DHT22;674;45.552;-122.600;2023-04-01T17:20:18;9.90;11.40
1361;DHT22;674;45.552;-122.600;2023-04-01T17:23:01;10.20;1.00
1361;DHT22;674;45.552;-122.600;2023-04-01T17:25:50;10.30;1.00
1361;DHT22;674;45.552;-122.600;2023-04-01T17:31:14;11.00;1.00
1361;DHT22;674;45.552;-122.600;2023-04-01T17:36:45;12.40;1.00
1361;DHT22;674;45.552;-122.600;2023-04-01T17:42:21;12.30;1.00
1361;DHT22;674;45.552;-122.600;2023-04-01T17:48:17;10.80;1.00
1361;DHT22;674;45.552;-122.600;2023-04-01T17:53:35;10.10;1.00
1361;DHT22;674;45.552;-122.600;2023-04-01T18:02:03;11.10;1.00
1361;DHT22;674;45.552;-122.600;2023-04-01T18:10:40;10.80;1.00
1361;DHT22;674;45.552;-122.600;2023-04-01T18:13:24;10.30;1.00
1361;DHT22;674;45.552;-122.600;2023-04-01T18:21:53;10.00;1.00
1361;DHT22;674;45.552;-122.600;2023-04-01T18:27:48;8.70;1.00
1361;DHT22;674;45.552;-122.600;2023-04-01T18:30:36;9.30;1.00
1361;DHT22;674;45.552;-122.600;2023-04-01T18:33:46;8.60;1.00
1361;DHT22;674;45.552;-122.600;2023-04-01T18:39:33;8.30;1.00
1361;DHT22;674;45.552;-122.600;2023-04-01T18:44:47;8.10;1.00
1361;DHT22;674;45.552;-122.600;2023-04-01T18:47:38;8.00;1.00
1361;DHT22;674;45.552;-122.600;2023-04-01T18:50:37;8.10;1.00
1361;DHT22;674;45.552;-122.600;2023-04-01T18:53:17;8.00;1.00
1361;DHT22;674;45.552;-122.600;2023-04-01T18:55:53;7.90;11.00
1361;DHT22;674;45.552;-122.600;2023-04-01T18:58:48;8.10;17.70
1361;DHT22;674;45.552;-122.600;2023-04-01T19:04:10;8.40;17.50
1361;DHT22;674;45.552;-122.600;2023-04-01T19:09:42;9.50;17.60
1361;DHT22;674;45.552;-122.600;2023-04-01T19:20:44;10.40;1.00
1361;DHT22;674;45.552;-122.600;2023-04-01T19:32:40;10.60;1.00
1361;DHT22;674;45.552;-122.600;2023-04-01T19:35:39;11.50;1.00
1361;DHT22;674;45.552;-122.600;2023-04-01T19:44:04;11.00;1.00
1361;DHT22;674;45.552;-122.600;2023-04-01T19:46:46;11.20;1.00
1361;DHT22;674;45.552;-122.600;2023-04-01T19:49:31;11.00;1.00
1361;DHT22;674;45.552;-122.600;2023-04-01T20:03:58;9.80;1.00
1361;DHT22;674;45.552;-122.600;2023-04-01T20:06:15;9.00;1.00
1361;DHT22;674;45.552;-122.600;2023-04-01T20:14:45;6.90;1.00
1361;DHT22;674;45.552;-122.600;2023-04-01T20:28:13;7.90;31.60
1361;DHT22;674;45.552;-122.600;2023-04-01T20:45:40;8.00;1.00
1361;DHT22;674;45.552;-122.600;2023-04-01T20:50:51;8.10;1.00
1361;DHT22;674;45.552;-122.600;2023-04-01T20:53:36;7.60;1.00
1361;DHT22;674;45.552;-122.600;2023-04-01T21:02:42;9.00;1.00
1361;DHT22;674;45.552;-122.600;2023-04-01T21:05:34;9.60;1.00
1361;DHT22;674;45.552;-122.600;2023-04-01T21:16:48;10.90;1.00
1361;DHT22;674;45.552;-122.600;2023-04-01T21:31:01;10.60;1.00
1361;DHT22;674;45.552;-122.600;2023-04-01T21:42:25;11.10;1.00
1361;DHT22;674;45.552;-122.600;2023-04-01T21:51:49;10.90;1.00
1361;DHT22;674;45.552;-122.600;2023-04-01T22:00:22;10.70;1.00
1361;DHT22;674;45.552;-122.600;2023-04-01T22:04:18;10.70;1.00
1361;DHT22;674;45.552;-122.600;2023-04-01T22:11:52;10.80;1.00
1361;DHT22;674;45.552;-122.600;2023-04-01T22:16:59;10.70;1.00
1361;DHT22;674;45.552;-122.600;2023-04-01T22:20:10;10.80;1.00
1361;DHT22;674;45.552;-122.600;2023-04-01T22:25:25;10.70;1.00
1361;DHT22;674;45.552;-122.600;2023-04-01T22:28:11;10.80;1.00
1361;DHT22;674;45.552;-122.600;2023-04-01T22:30:54;11.20;1.00
1361;DHT22;674;45.552;-122.600;2023-04-01T22:36:35;11.00;1.00
1361;DHT22;674;45.552;-122.600;2023-04-01T22:39:34;11.00;1.00
1361;DHT22;674;45.552;-122.600;2023-04-01T22:47:40;11.20;1.00
1361;DHT22;674;45.552;-122.600;2023-04-01T22:50:31;11.20;1.00
1361;DHT22;674;45.552;-122.600;2023-04-01T22:53:44;11.10;1.00
1361;DHT22;674;45.552;-122.600;2023-04-01T22:56:21;10.80;1.00
1361;DHT22;674;45.552;-122.600;2023-04-01T22:58:56;10.70;1.00
1361;DHT22;674;45.552;-122.600;2023-04-01T23:01:30;10.90;1.00
1361;DHT22;674;45.552;-122.600;2023-04-01T23:04:04;10.60;1.00
1361;DHT22;674;45.552;-122.600;2023-04-01T23:06:39;10.50;1.00
1361;DHT22;674;45.552;-122.600;2023-04-01T23:09:18;10.70;1.00
1361;DHT22;674;45.552;-122.600;2023-04-01T23:14:52;10.80;1.00
1361;DHT22;674;45.552;-122.600;2023-04-01T23:20:47;10.80;1.00
1361;DHT22;674;45.552;-122.600;2023-04-01T23:23:43;10.90;1.00
1361;DHT22;674;45.552;-122.600;2023-04-01T23:26:35;10.90;1.00
1361;DHT22;674;45.552;-122.600;2023-04-01T23:29:14;10.90;1.00
1361;DHT22;674;45.552;-122.600;2023-04-01T23:31:59;10.90;1.00
1361;DHT22;674;45.552;-122.600;2023-04-01T23:34:34;10.70;1.00
1361;DHT22;674;45.552;-122.600;2023-04-01T23:37:10;10.50;1.00
1361;DHT22;674;45.552;-122.600;2023-04-01T23:39:47;10.50;1.00
1361;DHT22;674;45.552;-122.600;2023-04-01T23:42:27;10.70;1.00
1361;DHT22;674;45.552;-122.600;2023-04-01T23:44:59;10.70;1.00
1361;DHT22;674;45.552;-122.600;2023-04-01T23:47:33;10.80;1.00
1361;DHT22;674;45.552;-122.600;2023-04-01T23:50:24;10.70;1.00
1361;DHT22;674;45.552;-122.600;2023-04-01T23:53:03;10.50;1.00
1361;DHT22;674;45.552;-122.600;2023-04-01T23:55:33;10.60;1.00
1361;DHT22;674;45.552;-122.600;2023-04-01T23:58:10;10.70;1.00
